Time;durP1;ratioP1;P1;durP2;ratioP2;P2;SDS_P1;SDS_P2;PMS_P1;PMS_P2;Temp;Humidity;BMP_temperature;BMP_pressure;BME280_temperature;BME280_humidity;BME280_pressure;Samples;Min_cycle;Max_cycle;Signal;HPM_P1;HPM_P2
2022/12/21 00:02:11;;;;;;;23.90;14.75;;;;;;;;;;5018127;28;20054;-87
2022/12/21 00:04:38;;;;;;;25.73;15.27;;;;;;;;;;5017520;28;20049;-87
2022/12/21 00:07:06;;;;;;;24.98;14.30;;;;;;;;;;5017773;28;20486;-87
2022/12/21 00:09:33;;;;;;;26.95;15.45;;;;;;;;;;5017969;28;20067;-92
2022/12/21 00:12:01;;;;;;;28.98;16.00;;;;;;;;;;5018145;28;20042;-87
2022/12/21 00:14:28;;;;;;;26.48;15.70;;;;;;;;;;5017799;28;20057;-87
2022/12/21 00:16:55;;;;;;;28.95;15.43;;;;;;;;;;5017755;28;20050;-88
2022/12/21 00:19:22;;;;;;;27.52;16.17;;;;;;;;;;5017595;28;20077;-89
2022/12/21 00:21:50;;;;;;;27.77;16.23;;;;;;;;;;5017696;28;20049;-87
2022/12/21 00:24:17;;;;;;;29.52;16.33;;;;;;;;;;5017083;28;20424;-87
2022/12/21 00:26:45;;;;;;;29.42;16.02;;;;;;;;;;5017494;28;20524;-87
2022/12/21 00:29:12;;;;;;;29.25;16.75;;;;;;;;;;5017623;28;20136;-88
2022/12/21 00:31:39;;;;;;;28.60;16.55;;;;;;;;;;5017436;28;20073;-89
2022/12/21 00:34:06;;;;;;;31.05;17.15;;;;;;;;;;5016604;28;20064;-88
2022/12/21 00:36:36;;;;;;;31.05;16.45;;;;;;;;;;5017349;28;20050;-89
2022/12/21 00:39:03;;;;;;;31.63;16.70;;;;;;;;;;5017517;28;20059;-89
2022/12/21 00:41:30;;;;;;;31.00;16.95;;;;;;;;;;5017255;28;20049;-89
2022/12/21 00:43:58;;;;;;;34.38;18.10;;;;;;;;;;5017237;28;20075;-89
2022/12/21 00:46:32;;;;;;;34.95;17.42;;;;;;;;;;5016997;28;20451;-88
2022/12/21 00:49:00;;;;;;;29.75;17.20;;;;;;;;;;5017220;28;20085;-88
2022/12/21 00:51:28;;;;;;;30.38;16.88;;;;;;;;;;5017196;28;20053;-88
2022/12/21 00:53:56;;;;;;;32.05;17.40;;;;;;;;;;5016817;28;20081;-88
2022/12/21 00:56:24;;;;;;;29.67;17.05;;;;;;;;;;5016805;28;20456;-88
2022/12/21 00:58:51;;;;;;;31.25;18.30;;;;;;;;;;5016849;28;20054;-88
2022/12/21 01:01:23;;;;;;;32.67;17.05;;;;;;;;;;5016564;28;20421;-90
2022/12/21 01:03:52;;;;;;;29.60;17.27;;;;;;;;;;5016881;28;20059;-88
2022/12/21 01:06:21;;;;;;;31.35;17.67;;;;;;;;;;5016725;28;20045;-88
2022/12/21 01:08:48;;;;;;;31.83;17.95;;;;;;;;;;5016927;28;20069;-88
2022/12/21 01:11:16;;;;;;;31.48;18.45;;;;;;;;;;5016888;28;20041;-88
2022/12/21 01:13:44;;;;;;;31.73;19.05;;;;;;;;;;5016622;28;20049;-89
2022/12/21 01:16:12;;;;;;;34.67;18.48;;;;;;;;;;5016580;28;20046;-88
2022/12/21 01:18:40;;;;;;;32.95;18.05;;;;;;;;;;5016654;28;20133;-88
2022/12/21 01:21:07;;;;;;;37.35;20.20;;;;;;;;;;5016673;28;20056;-89
2022/12/21 01:23:34;;;;;;;31.08;18.02;;;;;;;;;;5016761;28;20143;-89
2022/12/21 01:26:01;;;;;;;32.40;19.10;;;;;;;;;;5016697;28;20144;-88
2022/12/21 01:28:29;;;;;;;31.08;19.40;;;;;;;;;;5016547;28;20046;-88
2022/12/21 01:31:01;;;;;;;34.88;19.33;;;;;;;;;;5016712;28;20056;-88
2022/12/21 01:33:29;;;;;;;34.40;19.50;;;;;;;;;;5016534;28;20060;-88
2022/12/21 01:35:56;;;;;;;35.33;18.40;;;;;;;;;;5016524;28;20072;-88
2022/12/21 01:38:23;;;;;;;33.00;19.05;;;;;;;;;;5016510;28;20510;-89
2022/12/21 01:40:51;;;;;;;36.17;19.90;;;;;;;;;;5016442;28;20056;-88
2022/12/21 01:43:38;;;;;;;33.88;20.10;;;;;;;;;;5016338;28;20049;-88
2022/12/21 01:46:07;;;;;;;35.10;19.58;;;;;;;;;;5032064;28;20059;-89
2022/12/21 01:48:37;;;;;;;34.05;20.15;;;;;;;;;;5016564;28;20117;-88
2022/12/21 01:51:06;;;;;;;34.75;19.13;;;;;;;;;;5016391;28;20049;-88
2022/12/21 01:53:38;;;;;;;38.95;20.52;;;;;;;;;;5012796;28;20050;-88
2022/12/21 01:56:08;;;;;;;34.97;20.05;;;;;;;;;;5012675;28;20058;-89
2022/12/21 01:58:35;;;;;;;32.70;20.05;;;;;;;;;;5012649;28;20060;-88
2022/12/21 02:01:04;;;;;;;40.75;19.63;;;;;;;;;;5012837;28;20057;-88
2022/12/21 02:03:34;;;;;;;36.33;21.20;;;;;;;;;;5012796;28;20072;-88
2022/12/21 02:06:17;;;;;;;32.05;18.98;;;;;;;;;;5013002;28;20046;-89
2022/12/21 02:08:45;;;;;;;37.33;20.48;;;;;;;;;;5012850;28;20060;-88
2022/12/21 02:11:12;;;;;;;30.70;18.88;;;;;;;;;;5012725;28;20050;-88
2022/12/21 02:13:40;;;;;;;32.00;18.52;;;;;;;;;;5012854;28;20467;-88
2022/12/21 02:16:27;;;;;;;34.08;19.20;;;;;;;;;;5012716;28;20054;-89
2022/12/21 02:19:09;;;;;;;29.63;18.08;;;;;;;;;;5012864;28;20060;-89
2022/12/21 02:21:42;;;;;;;33.53;18.33;;;;;;;;;;5012471;28;20056;-89
2022/12/21 02:24:12;;;;;;;31.15;18.80;;;;;;;;;;5012643;28;20050;-89
2022/12/21 02:27:06;;;;;;;28.80;18.30;;;;;;;;;;5012480;28;20050;-89
2022/12/21 02:29:36;;;;;;;26.70;17.58;;;;;;;;;;5009373;28;20058;-89
2022/12/21 02:32:22;;;;;;;30.77;18.13;;;;;;;;;;5012372;28;20053;-89
2022/12/21 02:34:58;;;;;;;27.65;17.70;;;;;;;;;;5012334;28;20079;-89
2022/12/21 02:37:28;;;;;;;29.90;17.30;;;;;;;;;;5012184;28;20060;-89
2022/12/21 02:40:00;;;;;;;27.52;16.63;;;;;;;;;;5012309;28;20056;-89
2022/12/21 02:45:27;;;;;;;23.17;15.48;;;;;;;;;;5013052;28;20556;-89
2022/12/21 02:48:01;;;;;;;26.05;14.98;;;;;;;;;;5012554;28;20479;-89
2022/12/21 02:50:31;;;;;;;23.60;15.15;;;;;;;;;;5012177;28;20050;-88
2022/12/21 02:53:04;;;;;;;20.88;14.10;;;;;;;;;;5012477;28;20498;-88
2022/12/21 02:55:32;;;;;;;24.42;14.48;;;;;;;;;;5015566;28;20136;-89
2022/12/21 02:58:19;;;;;;;17.33;12.38;;;;;;;;;;5017290;28;20057;-89
2022/12/21 03:00:53;;;;;;;17.90;11.90;;;;;;;;;;5035588;28;20129;-89
2022/12/21 03:03:49;;;;;;;21.17;12.70;;;;;;;;;;5019318;28;20060;-89
2022/12/21 03:06:23;;;;;;;16.38;11.32;;;;;;;;;;5019245;28;20056;-89
2022/12/21 03:09:01;;;;;;;17.23;11.80;;;;;;;;;;5019198;28;20049;-89
2022/12/21 03:11:40;;;;;;;15.45;10.98;;;;;;;;;;5018818;28;20053;-89
2022/12/21 03:14:14;;;;;;;15.18;10.68;;;;;;;;;;5019116;28;20049;-89
2022/12/21 03:16:52;;;;;;;14.88;10.60;;;;;;;;;;5018719;28;20053;-88
2022/12/21 03:19:21;;;;;;;13.95;10.77;;;;;;;;;;5018814;28;20051;-89
2022/12/21 03:21:50;;;;;;;17.17;11.23;;;;;;;;;;5018809;28;20055;-90
2022/12/21 03:24:20;;;;;;;15.10;12.02;;;;;;;;;;5018454;28;20507;-89
2022/12/21 03:26:49;;;;;;;13.73;11.00;;;;;;;;;;5018893;28;20046;-89
2022/12/21 03:29:18;;;;;;;14.45;10.73;;;;;;;;;;5018544;28;20117;-89
2022/12/21 03:31:47;;;;;;;12.60;10.20;;;;;;;;;;5018472;28;20470;-89
2022/12/21 03:34:21;;;;;;;11.73;9.13;;;;;;;;;;5018442;28;20076;-88
2022/12/21 03:37:00;;;;;;;12.52;8.88;;;;;;;;;;5018637;28;20064;-89
2022/12/21 03:39:29;;;;;;;15.40;11.20;;;;;;;;;;5018638;28;20437;-89
2022/12/21 03:42:16;;;;;;;14.75;11.65;;;;;;;;;;5018383;28;20055;-89
2022/12/21 03:44:46;;;;;;;16.63;12.45;;;;;;;;;;5018231;28;20050;-89
2022/12/21 03:47:16;;;;;;;11.68;10.48;;;;;;;;;;5018281;28;20054;-89
2022/12/21 03:49:52;;;;;;;11.65;9.23;;;;;;;;;;5018318;28;20055;-89
2022/12/21 03:52:24;;;;;;;10.48;7.32;;;;;;;;;;5018146;28;20056;-89
2022/12/21 03:55:03;;;;;;;8.73;7.35;;;;;;;;;;5015912;28;20136;-89
2022/12/21 03:57:31;;;;;;;8.75;7.18;;;;;;;;;;5018150;28;20041;-89
2022/12/21 04:00:01;;;;;;;9.00;6.38;;;;;;;;;;5018019;28;20053;-89
2022/12/21 04:02:28;;;;;;;9.48;7.80;;;;;;;;;;5017907;28;20041;-89
2022/12/21 04:05:05;;;;;;;6.55;5.93;;;;;;;;;;5017684;28;20076;-90
2022/12/21 04:07:34;;;;;;;7.10;5.95;;;;;;;;;;5017804;28;20050;-89
2022/12/21 04:10:04;;;;;;;8.60;5.80;;;;;;;;;;5017591;28;20413;-89
2022/12/21 04:12:37;;;;;;;6.47;5.88;;;;;;;;;;5017865;28;20085;-89
2022/12/21 04:15:06;;;;;;;6.55;5.93;;;;;;;;;;5017782;28;20099;-89
2022/12/21 04:17:33;;;;;;;6.82;6.13;;;;;;;;;;5017751;28;20060;-89
2022/12/21 04:20:02;;;;;;;7.10;5.95;;;;;;;;;;5017768;28;20482;-89
2022/12/21 04:28:07;;;;;;;8.60;7.80;;;;;;;;;;5034947;28;20140;-89
2022/12/21 04:30:55;;;;;;;9.20;7.00;;;;;;;;;;5020132;28;20053;-89
2022/12/21 04:33:26;;;;;;;13.40;9.18;;;;;;;;;;5017957;28;20049;-89
2022/12/21 04:38:43;;;;;;;20.10;10.25;;;;;;;;;;5034814;28;20045;-90
2022/12/21 04:41:10;;;;;;;16.05;9.38;;;;;;;;;;5017468;28;20057;-89
2022/12/21 04:43:38;;;;;;;14.05;9.25;;;;;;;;;;5017066;28;20058;-90
2022/12/21 04:46:09;;;;;;;14.85;8.88;;;;;;;;;;5017286;28;20061;-89
2022/12/21 04:48:37;;;;;;;14.75;9.52;;;;;;;;;;5017202;28;20490;-89
2022/12/21 04:51:05;;;;;;;15.73;10.07;;;;;;;;;;5016930;28;20592;-89
2022/12/21 04:53:32;;;;;;;14.70;9.27;;;;;;;;;;5016937;28;20050;-89
2022/12/21 04:55:59;;;;;;;14.65;9.98;;;;;;;;;;5017079;28;20057;-88
2022/12/21 04:58:27;;;;;;;15.25;10.23;;;;;;;;;;5017092;28;20508;-89
2022/12/21 05:00:54;;;;;;;18.23;9.27;;;;;;;;;;5016999;28;20136;-90
2022/12/21 05:03:21;;;;;;;15.48;10.18;;;;;;;;;;5016872;28;20049;-89
2022/12/21 05:05:48;;;;;;;16.65;9.85;;;;;;;;;;5016605;28;20050;-89
2022/12/21 05:08:16;;;;;;;16.77;10.32;;;;;;;;;;5016875;28;20052;-89
2022/12/21 05:10:49;;;;;;;14.70;9.63;;;;;;;;;;5017662;28;20053;-90
2022/12/21 05:13:16;;;;;;;17.13;9.38;;;;;;;;;;5016705;28;20132;-89
2022/12/21 05:15:43;;;;;;;12.65;8.27;;;;;;;;;;5016791;28;20059;-90
2022/12/21 05:18:11;;;;;;;12.05;8.38;;;;;;;;;;5016699;28;20062;-89
2022/12/21 05:20:38;;;;;;;12.18;8.10;;;;;;;;;;5016219;28;20603;-89
2022/12/21 05:23:05;;;;;;;13.25;7.43;;;;;;;;;;5016684;28;20151;-90
2022/12/21 05:25:32;;;;;;;15.20;8.98;;;;;;;;;;5016361;28;20049;-90
2022/12/21 05:27:59;;;;;;;12.23;8.30;;;;;;;;;;5016423;28;20052;-90
2022/12/21 05:30:27;;;;;;;12.40;8.18;;;;;;;;;;5016577;28;20118;-90
2022/12/21 05:32:54;;;;;;;13.13;8.68;;;;;;;;;;5016512;28;20402;-90
2022/12/21 05:35:21;;;;;;;8.50;6.95;;;;;;;;;;5016398;28;20056;-90
2022/12/21 05:37:48;;;;;;;10.60;7.43;;;;;;;;;;5016472;28;20057;-89
2022/12/21 05:40:15;;;;;;;11.50;6.93;;;;;;;;;;5016026;28;20045;-90
2022/12/21 05:42:47;;;;;;;7.85;6.03;;;;;;;;;;5017029;28;20049;-89
2022/12/21 05:45:15;;;;;;;11.43;6.32;;;;;;;;;;5016149;28;20500;-90
2022/12/21 05:47:43;;;;;;;15.18;7.57;;;;;;;;;;5016322;28;20139;-89
2022/12/21 05:50:10;;;;;;;16.98;7.28;;;;;;;;;;5016016;28;20053;-90
2022/12/21 05:52:38;;;;;;;24.42;8.48;;;;;;;;;;5016025;28;20119;-89
2022/12/21 05:55:06;;;;;;;12.75;7.47;;;;;;;;;;5016171;28;20444;-90
2022/12/21 05:57:33;;;;;;;12.27;7.13;;;;;;;;;;5016743;28;20045;-90
2022/12/21 06:00:00;;;;;;;14.98;6.43;;;;;;;;;;5016439;28;20049;-90
2022/12/21 06:02:28;;;;;;;32.38;7.57;;;;;;;;;;5016577;28;20133;-90
2022/12/21 06:04:55;;;;;;;60.80;9.93;;;;;;;;;;5020241;28;20046;-90
2022/12/21 06:07:22;;;;;;;54.20;9.82;;;;;;;;;;5016495;28;20490;-89
2022/12/21 06:09:49;;;;;;;32.40;7.88;;;;;;;;;;5016165;28;20065;-89
2022/12/21 06:12:19;;;;;;;19.70;7.68;;;;;;;;;;5016546;28;20057;-90
2022/12/21 06:14:46;;;;;;;18.30;6.65;;;;;;;;;;5015879;28;20057;-90
2022/12/21 06:17:13;;;;;;;125.18;13.80;;;;;;;;;;5016186;28;20051;-90
2022/12/21 06:19:40;;;;;;;177.73;16.55;;;;;;;;;;5016136;28;20057;-89
2022/12/21 06:22:07;;;;;;;106.03;12.50;;;;;;;;;;5016026;28;20417;-89
2022/12/21 06:24:35;;;;;;;72.28;10.13;;;;;;;;;;5015902;28;20049;-90
2022/12/21 06:27:02;;;;;;;107.22;11.45;;;;;;;;;;5015873;28;20053;-90
2022/12/21 06:29:29;;;;;;;115.68;13.75;;;;;;;;;;5010307;28;20596;-90
2022/12/21 06:31:57;;;;;;;100.45;13.32;;;;;;;;;;4996362;28;20050;-89
2022/12/21 06:34:24;;;;;;;75.35;10.98;;;;;;;;;;5000110;28;20052;-90
2022/12/21 06:36:51;;;;;;;57.65;8.98;;;;;;;;;;5000175;28;20064;-90
2022/12/21 06:39:18;;;;;;;41.35;8.07;;;;;;;;;;5000038;28;20064;-90
2022/12/21 06:41:45;;;;;;;50.10;8.55;;;;;;;;;;4999910;28;20140;-90
2022/12/21 06:44:13;;;;;;;61.97;9.90;;;;;;;;;;4999482;28;20104;-90
2022/12/21 06:46:40;;;;;;;38.80;8.05;;;;;;;;;;5000053;28;20057;-89
2022/12/21 06:49:07;;;;;;;49.75;8.55;;;;;;;;;;4999875;28;20076;-90
2022/12/21 06:51:34;;;;;;;47.95;9.20;;;;;;;;;;4999382;28;20062;-90
2022/12/21 06:54:01;;;;;;;44.95;10.27;;;;;;;;;;4999566;28;20477;-90
2022/12/21 06:56:32;;;;;;;53.10;13.20;;;;;;;;;;4999649;28;20502;-90
2022/12/21 06:58:59;;;;;;;41.88;13.25;;;;;;;;;;4999693;28;20414;-90
2022/12/21 07:01:28;;;;;;;44.05;12.43;;;;;;;;;;4999572;28;20550;-89
2022/12/21 07:03:55;;;;;;;56.67;12.60;;;;;;;;;;4999605;28;20104;-90
2022/12/21 07:06:24;;;;;;;65.95;14.23;;;;;;;;;;4999101;28;20060;-89
2022/12/21 07:08:51;;;;;;;52.38;11.40;;;;;;;;;;4999517;28;20100;-89
2022/12/21 07:11:20;;;;;;;13.32;5.68;;;;;;;;;;4999378;28;20046;-90
2022/12/21 07:13:48;;;;;;;15.20;5.18;;;;;;;;;;4999295;28;20053;-90
2022/12/21 07:16:16;;;;;;;9.43;4.47;;;;;;;;;;4999388;28;20060;-90
2022/12/21 07:18:43;;;;;;;20.52;5.85;;;;;;;;;;4999116;28;20058;-90
2022/12/21 07:21:12;;;;;;;15.82;6.18;;;;;;;;;;4999096;28;20069;-89
2022/12/21 07:23:40;;;;;;;26.10;5.95;;;;;;;;;;4999186;28;20140;-90
2022/12/21 07:26:08;;;;;;;19.17;7.10;;;;;;;;;;4998982;28;20049;-89
2022/12/21 07:28:35;;;;;;;19.27;5.35;;;;;;;;;;4999013;28;20146;-90
2022/12/21 07:31:04;;;;;;;29.67;6.60;;;;;;;;;;4999143;28;20123;-89
2022/12/21 07:33:32;;;;;;;26.17;8.00;;;;;;;;;;4999393;28;20046;-90
2022/12/21 07:35:59;;;;;;;25.75;8.50;;;;;;;;;;4999150;28;20517;-90
2022/12/21 07:38:31;;;;;;;33.47;7.05;;;;;;;;;;4999873;28;20060;-89
2022/12/21 07:40:58;;;;;;;22.50;6.82;;;;;;;;;;4999065;28;20049;-90
2022/12/21 07:43:26;;;;;;;24.13;6.38;;;;;;;;;;5015672;28;20049;-90
2022/12/21 07:45:53;;;;;;;15.50;5.60;;;;;;;;;;4998820;28;20049;-90
2022/12/21 07:48:20;;;;;;;10.73;4.45;;;;;;;;;;4999034;28;20129;-89
2022/12/21 07:50:56;;;;;;;24.77;6.90;;;;;;;;;;5000186;28;20057;-88
2022/12/21 07:53:23;;;;;;;15.05;5.78;;;;;;;;;;4998838;28;20128;-90
2022/12/21 07:55:51;;;;;;;33.50;9.45;;;;;;;;;;4998571;28;20054;-91
2022/12/21 07:58:18;;;;;;;24.95;8.55;;;;;;;;;;4998490;28;20050;-90
2022/12/21 08:00:45;;;;;;;14.48;5.38;;;;;;;;;;4998456;28;20050;-90
2022/12/21 08:03:12;;;;;;;25.52;6.60;;;;;;;;;;4998264;28;20050;-90
2022/12/21 08:05:40;;;;;;;17.63;5.45;;;;;;;;;;4998102;28;20216;-89
2022/12/21 08:08:07;;;;;;;15.02;5.57;;;;;;;;;;4998635;28;20128;-90
2022/12/21 08:10:35;;;;;;;9.93;4.20;;;;;;;;;;4998198;28;20058;-90
2022/12/21 08:13:02;;;;;;;10.07;4.80;;;;;;;;;;4998187;28;20144;-90
2022/12/21 08:15:29;;;;;;;15.63;4.00;;;;;;;;;;4998126;28;20056;-90
2022/12/21 08:17:57;;;;;;;11.18;4.45;;;;;;;;;;4998538;28;20050;-89
2022/12/21 08:20:24;;;;;;;13.40;5.72;;;;;;;;;;4998284;28;20108;-90
2022/12/21 08:22:52;;;;;;;16.40;5.90;;;;;;;;;;4998461;28;20046;-89
2022/12/21 08:25:19;;;;;;;28.70;5.40;;;;;;;;;;4997638;28;20479;-89
2022/12/21 08:27:47;;;;;;;14.18;5.30;;;;;;;;;;4998157;28;20052;-90
2022/12/21 08:30:15;;;;;;;9.88;5.18;;;;;;;;;;4998239;28;20045;-90
2022/12/21 08:32:42;;;;;;;11.18;5.28;;;;;;;;;;4997854;28;20140;-89
2022/12/21 08:35:09;;;;;;;18.13;4.50;;;;;;;;;;4997979;28;20140;-90
2022/12/21 08:37:37;;;;;;;21.15;4.43;;;;;;;;;;4997633;28;20058;-89
2022/12/21 08:40:04;;;;;;;9.40;3.80;;;;;;;;;;4997087;28;20060;-90
2022/12/21 08:42:31;;;;;;;5.28;2.42;;;;;;;;;;4997913;28;20052;-89
2022/12/21 08:45:00;;;;;;;6.75;2.38;;;;;;;;;;4997810;28;20058;-90
2022/12/21 08:47:27;;;;;;;2.00;1.63;;;;;;;;;;4997904;28;20056;-89
2022/12/21 08:49:54;;;;;;;1.17;1.08;;;;;;;;;;4997423;28;20056;-89
2022/12/21 08:52:22;;;;;;;1.33;1.23;;;;;;;;;;4981322;28;20622;-89
2022/12/21 08:54:49;;;;;;;3.15;1.15;;;;;;;;;;4996533;28;20490;-89
2022/12/21 08:57:17;;;;;;;0.82;0.82;;;;;;;;;;4997632;28;20054;-89
2022/12/21 08:59:44;;;;;;;0.60;0.60;;;;;;;;;;4997347;28;20050;-89
2022/12/21 09:02:15;;;;;;;1.00;0.70;;;;;;;;;;4998135;28;20058;-89
2022/12/21 09:04:42;;;;;;;0.73;0.73;;;;;;;;;;4997564;28;20069;-90
2022/12/21 09:07:09;;;;;;;1.40;1.40;;;;;;;;;;4997225;28;20061;-90
2022/12/21 09:09:37;;;;;;;1.17;1.17;;;;;;;;;;4997412;28;20056;-89
2022/12/21 09:12:04;;;;;;;1.38;1.38;;;;;;;;;;4997354;28;20057;-90
2022/12/21 09:14:31;;;;;;;0.90;0.90;;;;;;;;;;4997443;28;20052;-89
2022/12/21 09:16:58;;;;;;;1.20;1.00;;;;;;;;;;4997307;28;20529;-89
2022/12/21 09:19:26;;;;;;;0.80;0.80;;;;;;;;;;4997271;28;20060;-89
2022/12/21 09:21:53;;;;;;;1.08;0.60;;;;;;;;;;4997288;28;20050;-89
2022/12/21 09:24:21;;;;;;;1.35;0.63;;;;;;;;;;4997334;28;20546;-89
2022/12/21 09:26:48;;;;;;;0.68;0.60;;;;;;;;;;4996753;28;20046;-90
2022/12/21 09:29:15;;;;;;;0.32;0.32;;;;;;;;;;4997117;28;20046;-90
2022/12/21 09:31:42;;;;;;;0.80;0.80;;;;;;;;;;4996267;28;20073;-89
2022/12/21 09:34:10;;;;;;;0.73;0.70;;;;;;;;;;4996874;28;20141;-89
2022/12/21 09:36:38;;;;;;;0.60;0.60;;;;;;;;;;4996787;28;20046;-90
2022/12/21 09:39:25;;;;;;;0.43;0.43;;;;;;;;;;4999294;28;20042;-90
2022/12/21 09:42:13;;;;;;;0.85;0.40;;;;;;;;;;4996540;28;20053;-89
2022/12/21 09:44:43;;;;;;;0.30;0.30;;;;;;;;;;4996540;28;20045;-90
2022/12/21 09:47:14;;;;;;;1.40;1.40;;;;;;;;;;4996455;28;20050;-90
2022/12/21 09:49:51;;;;;;;2.60;2.50;;;;;;;;;;4996243;28;20050;-89
2022/12/21 09:52:23;;;;;;;0.80;0.80;;;;;;;;;;4997423;28;20081;-89
2022/12/21 09:54:55;;;;;;;0.50;0.50;;;;;;;;;;4995600;28;20410;-89
2022/12/21 09:57:24;;;;;;;0.50;0.40;;;;;;;;;;4996220;28;20523;-89
2022/12/21 09:59:51;;;;;;;0.38;0.38;;;;;;;;;;4996074;28;20050;-90
2022/12/21 10:02:26;;;;;;;0.50;0.50;;;;;;;;;;4997003;28;20081;-90
2022/12/21 10:05:26;;;;;;;0.68;0.40;;;;;;;;;;4996470;28;20090;-89
2022/12/21 10:08:10;;;;;;;1.00;0.63;;;;;;;;;;4984608;28;20050;-90
2022/12/21 10:10:42;;;;;;;1.42;1.30;;;;;;;;;;5000738;28;20153;-90
2022/12/21 10:13:12;;;;;;;2.95;2.10;;;;;;;;;;5000471;28;20050;-90
2022/12/21 10:15:42;;;;;;;2.28;1.20;;;;;;;;;;5000426;28;20064;-90
2022/12/21 10:18:20;;;;;;;1.48;0.50;;;;;;;;;;5000630;28;20421;-89
2022/12/21 10:20:56;;;;;;;0.90;0.47;;;;;;;;;;5000532;28;20054;-90
2022/12/21 10:23:27;;;;;;;0.77;0.65;;;;;;;;;;5000783;28;20062;-90
2022/12/21 10:25:59;;;;;;;0.65;0.63;;;;;;;;;;4999913;28;20050;-89
2022/12/21 10:28:45;;;;;;;2.30;1.90;;;;;;;;;;5000896;28;20049;-90
2022/12/21 10:31:48;;;;;;;0.90;0.90;;;;;;;;;;5000321;28;20068;-90
2022/12/21 10:34:24;;;;;;;0.60;0.60;;;;;;;;;;4957363;28;20051;-89
2022/12/21 10:36:55;;;;;;;1.25;1.15;;;;;;;;;;4995452;28;20138;-90
2022/12/21 10:39:22;;;;;;;1.50;1.40;;;;;;;;;;5002731;28;20457;-90
2022/12/21 10:41:52;;;;;;;1.50;0.70;;;;;;;;;;5002377;28;20081;-89
2022/12/21 10:44:21;;;;;;;1.48;1.40;;;;;;;;;;5002560;28;20054;-89
2022/12/21 10:46:48;;;;;;;1.20;1.10;;;;;;;;;;5003037;28;20082;-90
2022/12/21 10:49:16;;;;;;;5.13;4.68;;;;;;;;;;5002809;28;20709;-90
2022/12/21 10:51:43;;;;;;;7.03;6.32;;;;;;;;;;5002859;28;20056;-89
2022/12/21 10:54:11;;;;;;;1.80;1.70;;;;;;;;;;5002437;28;20061;-89
2022/12/21 10:56:49;;;;;;;1.50;1.08;;;;;;;;;;5001011;28;20141;-89
2022/12/21 10:59:22;;;;;;;4.15;0.90;;;;;;;;;;4999646;28;20411;-90
2022/12/21 11:01:50;;;;;;;2.10;0.60;;;;;;;;;;4999670;28;20562;-89
2022/12/21 11:04:26;;;;;;;0.70;0.70;;;;;;;;;;4999581;28;20145;-89
2022/12/21 11:07:22;;;;;;;0.65;0.65;;;;;;;;;;4999415;28;20049;-90
2022/12/21 11:10:22;;;;;;;0.93;0.65;;;;;;;;;;5005970;28;20054;-89
2022/12/21 11:13:10;;;;;;;0.80;0.80;;;;;;;;;;5003301;28;20436;-90
2022/12/21 11:15:38;;;;;;;1.50;0.70;;;;;;;;;;4999546;28;20129;-90
2022/12/21 11:18:34;;;;;;;0.80;0.80;;;;;;;;;;5001384;28;20053;-89
2022/12/21 11:21:03;;;;;;;0.65;0.60;;;;;;;;;;4998932;28;20061;-90
2022/12/21 11:23:31;;;;;;;1.17;0.60;;;;;;;;;;4999349;28;20073;-89
2022/12/21 11:26:00;;;;;;;1.17;0.80;;;;;;;;;;4999134;28;20405;-90
2022/12/21 11:28:28;;;;;;;2.08;0.90;;;;;;;;;;4999112;28;20540;-90
2022/12/21 11:30:58;;;;;;;0.50;0.50;;;;;;;;;;4999251;28;20457;-90
2022/12/21 11:33:25;;;;;;;1.17;1.08;;;;;;;;;;4998492;28;20490;-90
2022/12/21 11:36:09;;;;;;;1.30;0.77;;;;;;;;;;4999177;28;20576;-90
2022/12/21 11:38:37;;;;;;;0.50;0.50;;;;;;;;;;4999076;28;20050;-90
2022/12/21 11:41:09;;;;;;;0.55;0.55;;;;;;;;;;4998812;28;20054;-90
2022/12/21 11:43:47;;;;;;;0.73;0.50;;;;;;;;;;4998897;28;20053;-91
2022/12/21 11:46:17;;;;;;;0.82;0.50;;;;;;;;;;4998793;28;20133;-90
2022/12/21 11:49:14;;;;;;;4.95;4.70;;;;;;;;;;5001460;28;20530;-90
2022/12/21 11:51:56;;;;;;;2.88;2.67;;;;;;;;;;4998888;28;20080;-90
2022/12/21 11:54:40;;;;;;;1.67;0.80;;;;;;;;;;4998161;28;20058;-91
2022/12/21 11:57:26;;;;;;;1.75;0.60;;;;;;;;;;4998661;28;20049;-89
2022/12/21 12:00:10;;;;;;;2.05;0.50;;;;;;;;;;4999023;28;20561;-89
2022/12/21 12:03:15;;;;;;;0.40;0.40;;;;;;;;;;5001015;28;20446;-90
2022/12/21 12:05:55;;;;;;;0.45;0.30;;;;;;;;;;4998344;28;20092;-89
2022/12/21 12:08:28;;;;;;;0.50;0.50;;;;;;;;;;4998542;28;20109;-90
2022/12/21 12:10:55;;;;;;;0.70;0.70;;;;;;;;;;4998085;28;20219;-89
2022/12/21 12:13:28;;;;;;;0.52;0.52;;;;;;;;;;4998344;28;20140;-89
2022/12/21 12:16:07;;;;;;;0.40;0.40;;;;;;;;;;4999296;28;20057;-90
2022/12/21 12:18:48;;;;;;;1.35;0.60;;;;;;;;;;4998290;28;20041;-90
2022/12/21 12:21:24;;;;;;;0.50;0.50;;;;;;;;;;4998949;28;20046;-90
2022/12/21 12:24:10;;;;;;;0.57;0.57;;;;;;;;;;4998243;28;20053;-90
2022/12/21 12:26:53;;;;;;;0.65;0.57;;;;;;;;;;4998015;28;20133;-89
2022/12/21 12:29:32;;;;;;;1.00;0.95;;;;;;;;;;4997879;28;20082;-90
2022/12/21 12:32:11;;;;;;;2.03;0.50;;;;;;;;;;4997922;28;20054;-90
2022/12/21 12:34:42;;;;;;;1.17;0.75;;;;;;;;;;4998357;28;20060;-90
2022/12/21 12:37:09;;;;;;;0.50;0.32;;;;;;;;;;4997990;28;20049;-90
2022/12/21 12:39:49;;;;;;;0.30;0.30;;;;;;;;;;4998297;28;20502;-89
2022/12/21 12:42:20;;;;;;;0.40;0.40;;;;;;;;;;4997529;28;20050;-90
2022/12/21 12:44:55;;;;;;;0.35;0.35;;;;;;;;;;4997881;28;20056;-89
2022/12/21 12:47:43;;;;;;;1.30;0.40;;;;;;;;;;4997696;28;20130;-89
2022/12/21 12:50:10;;;;;;;0.82;0.30;;;;;;;;;;4997527;28;20565;-90
2022/12/21 12:52:56;;;;;;;0.32;0.32;;;;;;;;;;4997392;28;20417;-89
2022/12/21 12:55:26;;;;;;;0.60;0.57;;;;;;;;;;4994152;28;20068;-89
2022/12/21 12:58:00;;;;;;;0.30;0.30;;;;;;;;;;4994140;28;20054;-90
2022/12/21 13:00:28;;;;;;;0.30;0.10;;;;;;;;;;4994074;28;20054;-90
2022/12/21 13:03:10;;;;;;;0.32;0.30;;;;;;;;;;4993934;28;20042;-89
2022/12/21 13:05:40;;;;;;;0.20;0.20;;;;;;;;;;4994184;28;20105;-89
2022/12/21 13:08:17;;;;;;;0.68;0.38;;;;;;;;;;4993597;28;20391;-90
2022/12/21 13:10:50;;;;;;;0.32;0.28;;;;;;;;;;4993970;28;20058;-89
2022/12/21 13:13:22;;;;;;;0.20;0.20;;;;;;;;;;4994152;28;20487;-89
2022/12/21 13:15:59;;;;;;;0.77;0.68;;;;;;;;;;4993881;28;20060;-90
2022/12/21 13:18:30;;;;;;;0.40;0.40;;;;;;;;;;4993911;28;20064;-89
2022/12/21 13:20:59;;;;;;;0.80;0.70;;;;;;;;;;4993792;28;20057;-89
2022/12/21 13:23:47;;;;;;;2.13;1.20;;;;;;;;;;4993725;28;20049;-90
2022/12/21 13:26:27;;;;;;;1.35;1.25;;;;;;;;;;4993343;28;20121;-90
2022/12/21 13:28:59;;;;;;;0.82;0.50;;;;;;;;;;4993829;28;20554;-90
2022/12/21 13:31:29;;;;;;;10.90;2.97;;;;;;;;;;4993671;28;20057;-90
2022/12/21 13:34:01;;;;;;;1.50;1.40;;;;;;;;;;4993777;28;20072;-89
2022/12/21 13:36:32;;;;;;;3.25;2.40;;;;;;;;;;4993470;28;20046;-89
2022/12/21 13:39:05;;;;;;;6.55;3.67;;;;;;;;;;4993861;28;20054;-90
2022/12/21 13:41:33;;;;;;;;;;;;;;;;;;4993430;28;20141;-89
2022/12/21 13:44:15;;;;;;;1.70;1.60;;;;;;;;;;4993167;28;19965;-89
2022/12/21 13:46:48;;;;;;;4.63;4.00;;;;;;;;;;4993419;28;20046;-89
2022/12/21 13:49:35;;;;;;;4.60;3.55;;;;;;;;;;4993495;28;20137;-90
2022/12/21 13:52:09;;;;;;;3.38;1.67;;;;;;;;;;4994065;28;20050;-89
2022/12/21 13:54:47;;;;;;;1.30;1.20;;;;;;;;;;4995303;28;20058;-90
2022/12/21 13:57:21;;;;;;;0.98;0.98;;;;;;;;;;5000184;28;20181;-90
2022/12/21 13:59:55;;;;;;;2.80;2.47;;;;;;;;;;4997594;28;20058;-90
2022/12/21 14:02:32;;;;;;;8.38;5.35;;;;;;;;;;4997092;28;20053;-89
2022/12/21 14:05:14;;;;;;;5.15;4.65;;;;;;;;;;4995327;28;20478;-90
2022/12/21 14:07:50;;;;;;;5.60;5.05;;;;;;;;;;4992922;28;20505;-90
2022/12/21 14:10:20;;;;;;;1.88;1.77;;;;;;;;;;4993376;28;20517;-90
2022/12/21 14:13:20;;;;;;;11.65;8.20;;;;;;;;;;4993380;28;20137;-89
2022/12/21 14:15:59;;;;;;;5.97;4.15;;;;;;;;;;4993433;28;20100;-90
2022/12/21 14:18:32;;;;;;;6.80;4.05;;;;;;;;;;4993425;28;20054;-89
2022/12/21 14:21:00;;;;;;;11.45;6.88;;;;;;;;;;4993006;28;20046;-90
2022/12/21 14:23:32;;;;;;;7.05;4.38;;;;;;;;;;4993467;28;20064;-90
2022/12/21 14:25:59;;;;;;;5.95;4.72;;;;;;;;;;4993119;28;20050;-90
2022/12/21 14:28:31;;;;;;;3.47;3.17;;;;;;;;;;4992628;28;20047;-91
2022/12/21 14:31:03;;;;;;;3.90;3.30;;;;;;;;;;4993131;28;20046;-90
2022/12/21 14:33:36;;;;;;;0.85;0.85;;;;;;;;;;4993272;28;20494;-90
2022/12/21 14:36:29;;;;;;;1.58;1.48;;;;;;;;;;4993343;28;20054;-90
2022/12/21 14:38:59;;;;;;;1.83;1.70;;;;;;;;;;4992843;28;20406;-90
2022/12/21 14:41:36;;;;;;;2.65;2.45;;;;;;;;;;4992779;28;20055;-90
2022/12/21 14:44:23;;;;;;;4.07;2.28;;;;;;;;;;4993043;28;20055;-89
2022/12/21 14:47:07;;;;;;;2.42;2.33;;;;;;;;;;4992299;28;20057;-90
2022/12/21 14:49:44;;;;;;;3.88;2.20;;;;;;;;;;4993147;28;20418;-90
2022/12/21 14:52:20;;;;;;;3.40;2.70;;;;;;;;;;4992973;28;20050;-90
2022/12/21 14:55:04;;;;;;;1.92;1.83;;;;;;;;;;4995583;28;20057;-90
2022/12/21 14:57:37;;;;;;;2.20;2.10;;;;;;;;;;4996435;28;20085;-90
2022/12/21 15:00:05;;;;;;;5.20;2.38;;;;;;;;;;4996299;28;20052;-90
2022/12/21 15:02:45;;;;;;;4.13;3.55;;;;;;;;;;4996459;28;20061;-90
2022/12/21 15:05:20;;;;;;;11.60;3.90;;;;;;;;;;4996214;28;20053;-90
2022/12/21 15:07:52;;;;;;;4.20;3.90;;;;;;;;;;4996124;28;20054;-90
2022/12/21 15:10:27;;;;;;;5.40;3.80;;;;;;;;;;4996195;28;20052;-90
2022/12/21 15:13:18;;;;;;;4.43;3.88;;;;;;;;;;4996533;28;20061;-90